Terminal Aerodrome Forecast
Issued by NWS

Home | Current Version | Previous Version | Text Only | Print | Product List | Glossary On
Versions: 1 2 3 4 5 6 7 8 9 10 11 12 13 14 15 16
613
FTAK31 PAJN 262008 AAB
TAFAJN
TAF AMD
PAJN 262008Z 2620/2718 23005KT 6SM -RA BR FEW006 BKN015 OVC035
     FM270000 14005KT P6SM -RA SCT005 OVC025
     FM270400 VRB05KT P6SM -RA OVC025
     FM271000 VRB05KT P6SM VCSH SCT025 OVC035=

USA.gov is the U.S. government's official web portal to all federal, state and local government web resources and services.